Time;durP1;ratioP1;P1;durP2;ratioP2;P2;SDS_P1;SDS_P2;PMS_P1;PMS_P2;Temp;Humidity;BMP_temperature;BMP_pressure;BME280_temperature;BME280_humidity;BME280_pressure;Samples;Min_cycle;Max_cycle;Signal;HPM_P1;HPM_P2
2021/07/28 00:01:20;;;;;;;12.57;5.43;;;16.00;99.90;;;;;;5007650;28;20026;-68
2021/07/28 00:03:46;;;;;;;;;;;16.00;99.90;;;;;;5007247;28;20483;-67
2021/07/28 00:06:22;;;;;;;15.25;5.10;;;16.00;99.90;;;;;;5004513;28;20000;-68
2021/07/28 00:08:49;;;;;;;12.95;5.40;;;16.10;99.90;;;;;;5008023;28;20030;-67
2021/07/28 00:11:16;;;;;;;10.82;4.72;;;16.00;99.90;;;;;;5007936;28;20018;-68
2021/07/28 00:13:44;;;;;;;12.20;5.47;;;16.00;99.90;;;;;;5008888;28;20034;-68
2021/07/28 00:16:11;;;;;;;13.15;5.53;;;16.10;99.90;;;;;;5007939;28;20050;-67
2021/07/28 00:23:57;;;;;;;11.45;5.10;;;16.00;99.90;;;;;;5003421;28;20499;-67
2021/07/28 00:26:23;;;;;;;10.40;4.32;;;16.10;99.90;;;;;;5008561;28;20030;-69
2021/07/28 00:28:49;;;;;;;13.15;5.78;;;16.00;99.90;;;;;;5006750;28;20388;-67
2021/07/28 00:31:14;;;;;;;12.15;4.97;;;16.00;99.90;;;;;;5004235;28;20030;-67
2021/07/28 00:33:40;;;;;;;12.98;5.22;;;16.10;99.90;;;;;;5006826;28;20158;-67
2021/07/28 00:36:05;;;;;;;13.95;5.10;;;16.00;99.90;;;;;;5007540;28;20512;-68
2021/07/28 00:38:31;;;;;;;11.02;4.82;;;16.00;99.90;;;;;;5008298;28;20095;-68
2021/07/28 00:40:57;;;;;;;11.63;5.10;;;15.90;99.90;;;;;;5005365;28;20032;-66
2021/07/28 00:43:27;;;;;;;11.02;4.70;;;16.00;99.90;;;;;;5008039;28;20061;-68
2021/07/28 00:45:53;;;;;;;;;;;16.00;99.90;;;;;;5004533;28;23018;-68
2021/07/28 00:48:18;;;;;;;12.15;4.65;;;16.00;99.90;;;;;;5005501;28;19913;-67
2021/07/28 00:50:44;;;;;;;12.77;5.25;;;15.90;99.90;;;;;;5012076;28;20069;-67
2021/07/28 00:53:18;;;;;;;10.57;4.80;;;16.00;99.90;;;;;;5009892;28;20018;-68
2021/07/28 00:55:45;;;;;;;12.20;5.32;;;15.90;99.90;;;;;;5008457;28;20259;-68
2021/07/28 00:58:11;;;;;;;14.40;5.70;;;16.00;99.90;;;;;;4993711;28;20110;-67
2021/07/28 01:00:38;;;;;;;12.40;5.28;;;15.90;99.90;;;;;;5011575;28;20050;-67
2021/07/28 01:03:03;;;;;;;14.00;5.57;;;15.90;99.90;;;;;;5008103;28;20025;-66
2021/07/28 01:05:30;;;;;;;12.05;5.57;;;15.80;99.90;;;;;;5009736;28;20033;-67
2021/07/28 01:07:55;;;;;;;14.73;5.72;;;15.80;99.90;;;;;;5009363;28;20032;-67
2021/07/28 01:10:21;;;;;;;12.23;5.43;;;15.80;99.90;;;;;;5006728;28;20598;-66
2021/07/28 01:12:52;;;;;;;12.88;4.85;;;15.80;99.90;;;;;;5011372;28;20088;-67
2021/07/28 01:15:32;;;;;;;14.13;5.13;;;15.80;99.90;;;;;;5010344;28;20361;-67
2021/07/28 01:18:01;;;;;;;12.65;5.80;;;15.80;99.90;;;;;;5018994;28;20045;-67
2021/07/28 01:20:38;;;;;;;13.10;5.60;;;15.90;99.90;;;;;;5008823;28;20029;-67
2021/07/28 01:23:07;;;;;;;13.65;5.72;;;15.90;99.90;;;;;;5010480;28;20037;-67
2021/07/28 01:25:34;;;;;;;12.70;5.47;;;15.90;99.90;;;;;;5002639;28;20444;-67
2021/07/28 01:28:02;;;;;;;11.13;4.68;;;15.90;99.90;;;;;;5009759;28;20030;-68
2021/07/28 01:30:27;;;;;;;12.63;4.97;;;16.00;99.90;;;;;;5007946;28;20523;-67
2021/07/28 01:32:54;;;;;;;12.75;5.32;;;16.00;99.90;;;;;;5009922;28;20022;-68
2021/07/28 01:35:22;;;;;;;12.88;5.28;;;16.00;99.90;;;;;;5008172;28;20061;-68
2021/07/28 01:37:48;;;;;;;13.98;6.03;;;16.00;99.90;;;;;;5010618;28;20061;-68
2021/07/28 01:40:14;;;;;;;14.23;5.13;;;16.10;99.90;;;;;;5009330;28;20053;-68
2021/07/28 01:42:41;;;;;;;13.50;5.57;;;16.10;99.90;;;;;;5010476;28;20481;-66
2021/07/28 01:45:08;;;;;;;12.40;5.38;;;16.70;99.90;;;;;;4993390;28;20034;-66
2021/07/28 01:47:34;;;;;;;11.82;5.65;;;16.10;99.90;;;;;;5010946;28;20197;-66
2021/07/28 01:50:00;;;;;;;14.48;5.55;;;16.10;99.90;;;;;;4978340;28;20121;-69
2021/07/28 01:52:25;;;;;;;12.70;5.47;;;16.10;99.90;;;;;;5007863;28;20121;-67
2021/07/28 01:54:51;;;;;;;11.80;5.65;;;16.10;99.90;;;;;;4992910;28;20481;-68
2021/07/28 01:57:16;;;;;;;15.55;6.53;;;16.20;99.90;;;;;;5008424;28;20397;-66
2021/07/28 01:59:42;;;;;;;12.77;6.13;;;16.10;99.90;;;;;;5010224;28;20048;-68
2021/07/28 02:02:08;;;;;;;13.57;6.25;;;16.10;99.90;;;;;;5007903;28;20041;-67
2021/07/28 02:04:33;;;;;;;15.20;6.22;;;16.10;99.90;;;;;;5007474;28;20018;-67
2021/07/28 02:06:59;;;;;;;12.57;6.20;;;16.20;99.90;;;;;;5010701;28;20030;-67
2021/07/28 02:09:25;;;;;;;12.82;6.03;;;16.20;99.90;;;;;;4994303;28;20432;-67
2021/07/28 02:11:50;;;;;;;15.95;6.05;;;16.10;99.90;;;;;;4988265;28;20088;-67
2021/07/28 02:14:16;;;;;;;13.93;6.40;;;16.20;99.90;;;;;;5010276;28;20022;-67
2021/07/28 02:16:42;;;;;;;13.48;4.95;;;16.30;99.90;;;;;;5008654;28;20493;-67
2021/07/28 02:19:07;;;;;;;12.20;5.75;;;16.30;99.90;;;;;;4991908;28;20034;-67
2021/07/28 02:21:33;;;;;;;14.48;6.28;;;16.30;99.90;;;;;;4984274;28;20038;-67
2021/07/28 02:24:00;;;;;;;11.75;5.28;;;16.30;99.90;;;;;;5009504;28;20026;-68
2021/07/28 02:26:25;;;;;;;15.23;6.15;;;16.30;99.90;;;;;;4994595;28;20022;-67
2021/07/28 02:28:54;;;;;;;12.20;5.90;;;16.30;99.90;;;;;;5009983;28;20103;-67
2021/07/28 02:31:19;;;;;;;14.43;6.03;;;16.30;99.90;;;;;;4992450;28;20045;-67
2021/07/28 02:33:45;;;;;;;14.40;6.30;;;16.30;99.90;;;;;;4975760;28;20037;-67
2021/07/28 02:36:11;;;;;;;14.77;6.28;;;16.20;99.90;;;;;;5008499;28;20061;-67
2021/07/28 02:38:36;;;;;;;16.13;6.00;;;16.20;99.90;;;;;;4990947;28;20021;-67
2021/07/28 02:41:03;;;;;;;12.50;5.85;;;16.10;99.90;;;;;;4992036;28;20034;-68
2021/07/28 02:43:28;;;;;;;14.10;5.95;;;16.10;99.90;;;;;;4994267;28;20074;-67
2021/07/28 02:45:54;;;;;;;11.35;5.50;;;16.10;99.90;;;;;;5007944;28;20073;-66
2021/07/28 02:48:20;;;;;;;12.65;5.70;;;16.00;99.90;;;;;;4947696;28;20037;-67
2021/07/28 02:50:45;;;;;;;10.75;5.18;;;16.00;99.90;;;;;;4991996;28;20025;-67
2021/07/28 02:53:11;;;;;;;12.70;5.57;;;15.90;99.90;;;;;;4993477;28;20022;-67
2021/07/28 02:55:37;;;;;;;14.25;5.95;;;15.90;99.90;;;;;;5010185;28;20026;-67
2021/07/28 02:58:02;;;;;;;14.23;6.15;;;15.90;99.90;;;;;;4993802;28;20140;-66
2021/07/28 03:00:28;;;;;;;13.23;5.18;;;16.00;99.90;;;;;;5009049;28;20037;-67
2021/07/28 03:02:54;;;;;;;13.18;6.03;;;16.00;99.90;;;;;;4992061;28;20461;-67
2021/07/28 03:05:19;;;;;;;12.73;5.68;;;16.00;99.90;;;;;;4990865;28;20528;-67
2021/07/28 03:07:45;;;;;;;12.18;5.78;;;16.00;99.90;;;;;;4992333;28;20713;-66
2021/07/28 03:10:11;;;;;;;12.02;6.15;;;16.00;99.90;;;;;;4989286;28;20060;-66
2021/07/28 03:12:37;;;;;;;12.82;6.22;;;16.00;99.90;;;;;;4994034;28;20041;-67
2021/07/28 03:15:04;;;;;;;13.27;5.93;;;16.00;99.90;;;;;;4993974;28;20053;-69
2021/07/28 03:17:30;;;;;;;11.50;5.43;;;15.90;99.90;;;;;;5001149;28;20038;-67
2021/07/28 03:19:57;;;;;;;13.63;6.60;;;15.90;99.90;;;;;;4987643;28;20362;-67
2021/07/28 03:22:25;;;;;;;13.48;6.20;;;15.90;99.90;;;;;;4988885;28;20064;-67
2021/07/28 03:24:50;;;;;;;12.25;6.05;;;15.90;99.90;;;;;;4986375;28;20481;-66
2021/07/28 03:27:16;;;;;;;14.77;6.38;;;15.90;99.90;;;;;;4987537;28;20030;-67
2021/07/28 03:29:43;;;;;;;17.10;8.18;;;15.90;99.90;;;;;;4986698;28;20048;-67
2021/07/28 03:32:08;;;;;;;13.93;5.88;;;15.90;99.90;;;;;;4988615;28;20113;-67
2021/07/28 03:34:36;;;;;;;17.35;7.22;;;15.90;99.90;;;;;;4989612;28;20367;-67
2021/07/28 03:37:02;;;;;;;14.38;7.38;;;15.90;99.90;;;;;;4987094;28;20054;-67
2021/07/28 03:39:30;;;;;;;16.83;8.40;;;15.90;99.90;;;;;;4989809;28;20112;-67
2021/07/28 03:41:57;;;;;;;17.05;7.10;;;15.90;99.90;;;;;;4986921;28;20073;-68
2021/07/28 03:44:23;;;;;;;18.77;7.22;;;15.90;99.90;;;;;;4988261;28;20026;-67
2021/07/28 03:46:49;;;;;;;16.40;8.05;;;15.90;99.90;;;;;;4971373;28;20049;-67
2021/07/28 03:49:14;;;;;;;15.90;7.55;;;15.80;99.90;;;;;;4986744;28;20037;-67
2021/07/28 03:51:40;;;;;;;14.88;7.13;;;15.80;99.90;;;;;;4993051;28;20054;-67
2021/07/28 03:54:06;;;;;;;17.52;6.10;;;15.80;99.90;;;;;;4988167;28;20769;-67
2021/07/28 03:56:32;;;;;;;16.38;7.05;;;15.80;99.90;;;;;;4982644;28;20162;-68
2021/07/28 03:58:58;;;;;;;17.15;8.00;;;15.70;99.90;;;;;;4988897;28;20026;-67
2021/07/28 04:01:24;;;;;;;17.08;7.20;;;15.80;99.90;;;;;;4988063;28;20041;-67
2021/07/28 04:03:52;;;;;;;14.20;6.32;;;15.80;99.90;;;;;;4984798;28;20552;-67
2021/07/28 04:06:18;;;;;;;16.15;7.35;;;15.80;99.90;;;;;;5001531;28;20251;-68
2021/07/28 04:08:44;;;;;;;13.05;6.30;;;15.80;99.90;;;;;;4987848;28;20058;-67
2021/07/28 04:11:09;;;;;;;11.50;5.22;;;15.90;99.90;;;;;;4985014;28;20054;-67
2021/07/28 04:13:35;;;;;;;15.18;7.38;;;15.90;99.90;;;;;;4988460;28;20113;-69
2021/07/28 04:16:01;;;;;;;14.15;6.40;;;15.90;99.90;;;;;;4998778;28;20050;-66
2021/07/28 04:18:27;;;;;;;13.45;6.97;;;15.90;99.90;;;;;;5004340;28;20033;-67
2021/07/28 04:20:52;;;;;;;14.85;7.60;;;15.80;99.90;;;;;;4989991;28;20473;-68
2021/07/28 04:23:19;;;;;;;14.82;6.90;;;15.80;99.90;;;;;;4989677;28;20030;-67
2021/07/28 04:25:47;;;;;;;17.88;7.22;;;15.90;99.90;;;;;;4991874;28;20041;-71
2021/07/28 04:28:13;;;;;;;17.40;7.28;;;16.00;99.90;;;;;;5004018;28;20120;-68
2021/07/28 04:30:40;;;;;;;13.88;6.57;;;16.20;99.90;;;;;;4987560;28;20098;-68
2021/07/28 04:33:05;;;;;;;14.48;6.25;;;16.20;99.90;;;;;;5006517;28;20029;-67
2021/07/28 04:35:34;;;;;;;14.80;7.03;;;16.30;99.90;;;;;;4989552;28;20026;-68
2021/07/28 04:38:01;;;;;;;12.63;6.38;;;16.40;99.90;;;;;;5009461;28;20037;-68
2021/07/28 04:40:26;;;;;;;14.40;6.50;;;16.40;99.90;;;;;;4990350;28;20040;-68
2021/07/28 04:42:53;;;;;;;17.95;6.90;;;16.40;99.90;;;;;;5007297;28;20204;-68
2021/07/28 04:45:19;;;;;;;13.95;6.18;;;16.40;99.90;;;;;;4992078;28;20905;-67
2021/07/28 04:47:49;;;;;;;15.65;6.50;;;16.40;99.90;;;;;;4988784;28;20082;-67
2021/07/28 04:50:15;;;;;;;14.77;7.13;;;16.50;99.90;;;;;;5005218;28;20026;-67
2021/07/28 04:52:41;;;;;;;14.57;6.65;;;16.60;99.90;;;;;;5007020;28;20056;-68
2021/07/28 04:55:07;;;;;;;13.18;6.45;;;16.70;99.90;;;;;;5006627;28;20037;-68
2021/07/28 04:57:32;;;;;;;14.95;6.90;;;16.70;99.90;;;;;;5007365;28;20030;-68
2021/07/28 04:59:59;;;;;;;14.25;6.63;;;16.70;99.90;;;;;;4990769;28;20473;-69
2021/07/28 05:02:25;;;;;;;14.00;5.75;;;16.70;99.90;;;;;;5008809;28;20038;-67
2021/07/28 05:04:51;;;;;;;15.25;7.00;;;16.70;99.90;;;;;;5006767;28;20022;-69
2021/07/28 05:07:18;;;;;;;14.90;6.57;;;16.80;99.90;;;;;;5006409;28;20084;-66
2021/07/28 05:09:43;;;;;;;12.23;3.95;;;16.80;99.90;;;;;;5001667;28;20038;-68
2021/07/28 05:12:09;;;;;;;13.27;5.82;;;16.90;99.90;;;;;;5002835;28;20061;-66
2021/07/28 05:14:35;;;;;;;13.75;6.78;;;16.90;99.90;;;;;;5006871;28;20052;-67
2021/07/28 05:17:00;;;;;;;15.18;6.40;;;16.90;99.90;;;;;;5006424;28;20473;-67
2021/07/28 05:19:26;;;;;;;12.95;6.55;;;16.90;99.90;;;;;;5008361;28;20029;-69
2021/07/28 05:21:51;;;;;;;14.10;6.30;;;17.00;99.90;;;;;;5005984;28;20129;-68
2021/07/28 05:24:17;;;;;;;12.35;5.95;;;17.00;99.90;;;;;;5007990;28;20052;-68
2021/07/28 05:26:42;;;;;;;13.75;6.70;;;17.00;99.90;;;;;;5004945;28;20065;-68
2021/07/28 05:29:09;;;;;;;11.95;6.32;;;17.10;99.90;;;;;;5005145;28;20385;-68
2021/07/28 05:31:36;;;;;;;11.48;5.68;;;17.30;99.90;;;;;;5006148;28;20448;-68
2021/07/28 05:34:01;;;;;;;12.90;6.25;;;17.50;99.90;;;;;;5005482;28;20026;-69
2021/07/28 05:36:27;;;;;;;12.23;5.80;;;17.80;99.90;;;;;;5010361;28;20038;-68
2021/07/28 05:38:52;;;;;;;11.82;4.93;;;18.10;99.90;;;;;;5011043;28;20026;-68
2021/07/28 05:41:18;;;;;;;10.75;5.57;;;18.30;99.90;;;;;;5011207;28;20033;-68
2021/07/28 05:43:43;;;;;;;13.55;5.65;;;18.50;99.90;;;;;;5007971;28;20553;-67
2021/07/28 05:46:09;;;;;;;11.52;5.13;;;18.50;99.90;;;;;;5008788;28;20029;-67
2021/07/28 05:48:35;;;;;;;12.40;5.45;;;18.50;99.90;;;;;;5009359;28;20024;-67
2021/07/28 05:51:00;;;;;;;8.95;3.75;;;18.50;99.90;;;;;;5008078;28;20112;-68
2021/07/28 05:53:26;;;;;;;12.27;4.78;;;18.40;99.90;;;;;;5010059;28;20642;-80
2021/07/28 05:55:53;;;;;;;11.52;5.20;;;18.50;99.90;;;;;;5010979;28;20034;-80
2021/07/28 05:58:20;;;;;;;10.88;5.20;;;18.60;99.90;;;;;;5009094;28;20312;-80
2021/07/28 06:00:45;;;;;;;13.25;5.55;;;18.80;99.90;;;;;;5007086;28;20388;-79
2021/07/28 06:03:11;;;;;;;10.88;5.15;;;18.70;99.90;;;;;;5000709;28;20025;-79
2021/07/28 06:05:37;;;;;;;13.90;5.22;;;18.70;99.90;;;;;;5008407;28;20030;-79
2021/07/28 06:08:02;;;;;;;13.32;5.57;;;18.70;99.90;;;;;;5006140;28;20096;-79
2021/07/28 06:10:28;;;;;;;10.10;5.00;;;18.80;99.90;;;;;;5010681;28;20037;-79
2021/07/28 06:12:54;;;;;;;10.27;4.70;;;18.80;99.90;;;;;;4993506;28;20029;-80
2021/07/28 06:15:19;;;;;;;14.30;5.00;;;19.10;99.90;;;;;;5009987;28;20058;-79
2021/07/28 06:17:45;;;;;;;12.95;4.72;;;19.00;99.90;;;;;;4999854;28;20080;-79
2021/07/28 06:20:11;;;;;;;10.00;4.28;;;19.20;99.90;;;;;;5007548;28;20044;-79
2021/07/28 06:22:38;;;;;;;10.52;4.38;;;19.20;99.90;;;;;;4990609;28;20038;-81
2021/07/28 06:25:05;;;;;;;11.52;5.00;;;19.10;99.90;;;;;;5008381;28;20037;-80
2021/07/28 06:27:31;;;;;;;11.10;4.53;;;18.80;99.90;;;;;;4991798;28;20493;-65
2021/07/28 06:29:56;;;;;;;10.57;4.85;;;18.70;99.90;;;;;;5010112;28;20068;-65
2021/07/28 06:32:22;;;;;;;9.40;4.70;;;18.70;99.90;;;;;;5009349;28;20171;-66
2021/07/28 06:34:48;;;;;;;15.00;5.50;;;18.50;99.90;;;;;;5010024;28;20380;-65
2021/07/28 06:37:14;;;;;;;13.63;5.50;;;18.30;99.90;;;;;;4992187;28;20030;-65
2021/07/28 06:39:40;;;;;;;11.05;5.30;;;18.20;99.90;;;;;;5010400;28;20022;-65
2021/07/28 06:42:05;;;;;;;11.68;4.55;;;18.20;99.90;;;;;;5008550;28;20121;-65
2021/07/28 06:44:31;;;;;;;10.05;3.88;;;18.40;99.90;;;;;;5009811;28;20049;-66
2021/07/28 06:46:56;;;;;;;10.73;4.55;;;18.40;99.90;;;;;;5009272;28;20048;-65
2021/07/28 06:49:22;;;;;;;12.63;5.18;;;18.50;99.90;;;;;;5008964;28;20109;-65
2021/07/28 06:51:48;;;;;;;11.18;4.43;;;18.50;99.90;;;;;;5009821;28;20029;-65
2021/07/28 06:54:13;;;;;;;13.05;6.07;;;18.60;99.90;;;;;;5007511;28;20057;-65
2021/07/28 06:56:39;;;;;;;9.65;4.13;;;18.70;99.90;;;;;;5008528;28;20092;-65
2021/07/28 06:59:04;;;;;;;9.35;4.00;;;18.90;99.90;;;;;;5006818;28;20034;-65
2021/07/28 07:01:31;;;;;;;9.82;4.40;;;19.10;99.90;;;;;;5006677;28;20110;-65
2021/07/28 07:03:56;;;;;;;10.43;4.72;;;18.90;99.90;;;;;;5008262;28;20021;-65
2021/07/28 07:06:22;;;;;;;11.18;4.57;;;19.10;99.90;;;;;;5008324;28;20366;-65
2021/07/28 07:08:47;;;;;;;11.85;4.22;;;19.20;99.90;;;;;;5009180;28;20065;-65
2021/07/28 07:11:13;;;;;;;9.85;3.67;;;19.30;99.90;;;;;;4990513;28;20017;-65
2021/07/28 07:13:38;;;;;;;10.20;4.25;;;19.40;99.90;;;;;;5008302;28;20049;-65
2021/07/28 07:16:04;;;;;;;10.05;4.35;;;19.40;99.90;;;;;;5007416;28;20053;-65
2021/07/28 07:18:30;;;;;;;9.60;4.22;;;19.40;99.90;;;;;;5007867;28;20113;-65
2021/07/28 07:20:55;;;;;;;10.95;4.30;;;19.40;99.90;;;;;;5005558;28;20376;-65
2021/07/28 07:23:21;;;;;;;7.57;3.10;;;19.50;99.90;;;;;;5007357;28;20041;-65
2021/07/28 07:25:46;;;;;;;11.55;3.53;;;19.50;99.90;;;;;;5006551;28;20030;-65
2021/07/28 07:28:12;;;;;;;9.63;3.35;;;19.40;99.90;;;;;;5005386;28;20022;-65
2021/07/28 07:30:38;;;;;;;9.50;3.38;;;19.40;99.90;;;;;;5006607;28;20072;-65
2021/07/28 07:35:49;;;;;;;7.85;3.83;;;19.30;99.90;;;;;;5005365;28;20037;-66
2021/07/28 07:38:14;;;;;;;9.32;3.95;;;19.60;99.90;;;;;;5007897;28;20060;-65
2021/07/28 07:40:40;;;;;;;8.35;3.40;;;19.90;99.90;;;;;;5008360;28;20045;-66
2021/07/28 07:43:07;;;;;;;12.98;4.30;;;19.90;99.90;;;;;;5007708;28;20029;-65
2021/07/28 07:45:35;;;;;;;10.27;3.35;;;20.10;99.90;;;;;;5008372;28;20116;-65
2021/07/28 07:48:01;;;;;;;9.30;3.03;;;20.30;99.90;;;;;;5008173;28;20057;-66
2021/07/28 07:50:27;;;;;;;9.95;4.07;;;19.90;99.90;;;;;;5008596;28;20062;-65
2021/07/28 07:52:52;;;;;;;12.90;4.80;;;19.30;99.90;;;;;;5008484;28;20447;-66
2021/07/28 07:55:18;;;;;;;9.77;4.00;;;19.10;99.90;;;;;;5007243;28;20018;-66
2021/07/28 07:57:43;;;;;;;10.60;4.30;;;19.00;99.90;;;;;;5007682;28;20081;-66
2021/07/28 08:00:10;;;;;;;9.43;4.13;;;19.20;99.90;;;;;;5007441;28;20022;-65
2021/07/28 08:02:35;;;;;;;9.15;3.58;;;19.30;99.90;;;;;;5007632;28;20022;-65
2021/07/28 08:05:01;;;;;;;9.07;3.75;;;19.30;99.90;;;;;;5004918;28;20045;-66
2021/07/28 08:07:26;;;;;;;11.48;4.25;;;19.30;99.90;;;;;;5005371;28;20132;-65
2021/07/28 08:09:52;;;;;;;11.15;4.60;;;19.50;99.90;;;;;;5005293;28;20026;-65
2021/07/28 08:12:18;;;;;;;11.07;4.05;;;20.00;99.90;;;;;;5002350;28;20131;-65
2021/07/28 08:14:43;;;;;;;8.15;4.00;;;20.50;99.90;;;;;;5005034;28;20493;-65
2021/07/28 08:17:09;;;;;;;8.98;4.10;;;20.60;99.90;;;;;;5006663;28;20120;-66
2021/07/28 08:19:36;;;;;;;8.50;3.35;;;20.90;99.90;;;;;;5007663;28;20104;-65
2021/07/28 08:22:02;;;;;;;8.32;3.03;;;20.60;99.90;;;;;;4990292;28;20026;-65
2021/07/28 08:24:29;;;;;;;10.50;4.22;;;20.80;99.90;;;;;;5007365;28;20046;-65
2021/07/28 08:26:54;;;;;;;8.98;3.70;;;21.20;99.90;;;;;;5006438;28;20601;-66
2021/07/28 08:29:20;;;;;;;8.30;3.78;;;21.80;99.90;;;;;;5006020;28;20052;-66
2021/07/28 08:31:45;;;;;;;9.13;4.07;;;21.90;99.90;;;;;;5007890;28;20022;-66
2021/07/28 08:34:11;;;;;;;9.98;3.90;;;22.00;99.90;;;;;;5006537;28;20550;-66
2021/07/28 08:36:37;;;;;;;8.70;3.50;;;21.90;99.90;;;;;;5008584;28;20121;-65
2021/07/28 08:39:03;;;;;;;9.95;3.97;;;21.30;99.90;;;;;;4991343;28;20034;-65
2021/07/28 08:41:33;;;;;;;11.48;3.53;;;21.50;99.90;;;;;;5006952;28;20038;-65
2021/07/28 08:43:58;;;;;;;;;;;21.40;99.90;;;;;;5007702;28;20033;-66
2021/07/28 08:46:27;;;;;;;11.60;4.72;;;21.50;99.90;;;;;;5006234;28;20126;-65
2021/07/28 08:48:54;;;;;;;7.45;3.10;;;21.20;99.90;;;;;;5006555;28;20504;-67
2021/07/28 08:51:24;;;;;;;7.60;2.85;;;20.80;99.90;;;;;;5006417;28;20029;-67
2021/07/28 08:53:49;;;;;;;;;;;20.20;99.90;;;;;;5008063;28;20026;-66
2021/07/28 08:56:16;;;;;;;13.27;4.85;;;19.50;99.90;;;;;;5006625;28;19924;-67
2021/07/28 08:58:42;;;;;;;13.88;6.35;;;19.20;99.90;;;;;;4996210;28;20042;-66
2021/07/28 09:01:07;;;;;;;11.05;5.28;;;19.10;99.90;;;;;;5006052;28;20446;-66
2021/07/28 09:03:33;;;;;;;11.68;6.20;;;18.90;99.90;;;;;;5007101;28;20062;-66
2021/07/28 09:06:00;;;;;;;13.13;5.85;;;18.70;99.90;;;;;;4989383;28;20033;-67
2021/07/28 09:08:34;;;;;;;10.38;4.90;;;18.60;99.90;;;;;;5006852;28;20030;-66
2021/07/28 09:11:00;;;;;;;15.98;6.57;;;18.50;99.90;;;;;;4995202;28;20033;-66
2021/07/28 09:13:41;;;;;;;13.52;5.97;;;18.30;99.90;;;;;;5010605;28;20112;-66
2021/07/28 09:16:11;;;;;;;13.80;6.38;;;18.30;99.90;;;;;;5009501;28;20038;-66
2021/07/28 09:18:40;;;;;;;15.40;6.40;;;18.10;99.90;;;;;;5009369;28;20064;-66
2021/07/28 09:21:25;;;;;;;15.60;6.30;;;17.80;99.90;;;;;;5010047;28;20026;-66
2021/07/28 09:23:54;;;;;;;12.73;5.05;;;17.70;99.90;;;;;;5009998;28;20021;-67
2021/07/28 09:26:31;;;;;;;14.25;5.55;;;17.80;99.90;;;;;;5009322;28;20092;-66
2021/07/28 09:29:10;;;;;;;12.00;4.13;;;18.10;99.90;;;;;;5005618;28;20026;-67
2021/07/28 09:31:37;;;;;;;9.85;4.30;;;18.10;99.90;;;;;;5010225;28;20036;-67
2021/07/28 09:34:18;;;;;;;7.70;3.08;;;18.40;99.90;;;;;;5009789;28;20026;-67
2021/07/28 09:36:44;;;;;;;8.93;3.50;;;18.50;99.90;;;;;;4989300;28;20030;-67
2021/07/28 09:39:21;;;;;;;8.00;3.33;;;18.70;99.90;;;;;;4992296;28;20037;-67
2021/07/28 09:41:46;;;;;;;7.95;3.13;;;18.80;99.90;;;;;;5011208;28;20112;-67
2021/07/28 09:44:23;;;;;;;8.77;3.75;;;18.70;99.90;;;;;;5009016;28;20419;-67
2021/07/28 09:47:03;;;;;;;9.68;3.25;;;18.90;99.90;;;;;;5011120;28;20021;-67
2021/07/28 09:49:30;;;;;;;8.73;3.75;;;18.90;99.90;;;;;;5010400;28;20309;-68
2021/07/28 09:51:56;;;;;;;10.45;3.58;;;19.00;99.90;;;;;;5010697;28;20059;-67
2021/07/28 09:54:27;;;;;;;7.88;3.10;;;19.20;99.90;;;;;;5010224;28;20053;-66
2021/07/28 09:57:00;;;;;;;8.88;3.40;;;18.90;99.90;;;;;;5011042;28;20041;-67
2021/07/28 09:59:28;;;;;;;9.48;4.40;;;18.90;99.90;;;;;;5008383;28;20122;-67
2021/07/28 10:01:55;;;;;;;9.25;4.22;;;19.50;99.90;;;;;;5008087;28;20056;-67
2021/07/28 10:04:22;;;;;;;9.52;3.90;;;19.40;99.90;;;;;;5008142;28;20034;-65
2021/07/28 10:06:50;;;;;;;12.77;4.47;;;19.80;99.90;;;;;;5005157;28;20111;-66
2021/07/28 10:09:19;;;;;;;11.02;3.65;;;20.10;99.90;;;;;;4992485;28;20025;-66
2021/07/28 10:11:52;;;;;;;16.20;4.32;;;20.90;99.90;;;;;;4985311;28;20041;-66
2021/07/28 10:14:19;;;;;;;6.25;2.38;;;21.80;99.90;;;;;;5006592;28;20061;-66
2021/07/28 10:16:45;;;;;;;8.68;3.90;;;22.10;99.90;;;;;;5008820;28;20049;-66
2021/07/28 10:19:11;;;;;;;7.07;2.22;;;21.70;99.90;;;;;;5007696;28;20362;-66
2021/07/28 10:21:38;;;;;;;9.20;4.13;;;21.90;99.90;;;;;;5007784;28;20025;-66
2021/07/28 10:24:05;;;;;;;8.13;3.95;;;22.20;99.90;;;;;;5009258;28;20029;-67
2021/07/28 10:26:38;;;;;;;8.20;3.70;;;23.00;99.90;;;;;;5004279;28;20330;-66
2021/07/28 10:29:05;;;;;;;9.32;4.25;;;23.90;99.90;;;;;;5008876;28;20108;-66
2021/07/28 10:31:53;;;;;;;6.72;2.88;;;24.00;99.90;;;;;;5004380;28;20208;-66
2021/07/28 10:34:29;;;;;;;10.13;3.95;;;23.30;99.90;;;;;;5008279;28;20485;-66
2021/07/28 10:37:04;;;;;;;8.30;3.88;;;24.10;99.90;;;;;;5008458;28;20033;-66
2021/07/28 10:39:37;;;;;;;7.15;3.05;;;25.10;99.90;;;;;;4990428;28;20475;-66
2021/07/28 10:42:16;;;;;;;8.27;3.58;;;25.20;99.90;;;;;;5007702;28;20037;-66
2021/07/28 10:45:02;;;;;;;9.18;3.25;;;25.40;99.90;;;;;;5005941;28;20026;-66
2021/07/28 10:47:45;;;;;;;7.93;3.92;;;24.80;99.90;;;;;;5008633;28;20125;-66
2021/07/28 10:50:25;;;;;;;11.38;4.65;;;24.80;99.90;;;;;;5007455;28;20076;-66
2021/07/28 10:52:52;;;;;;;10.57;4.40;;;25.20;99.90;;;;;;5009386;28;20033;-66
2021/07/28 10:55:37;;;;;;;8.27;4.40;;;25.50;99.90;;;;;;5007069;28;20025;-66
2021/07/28 10:58:09;;;;;;;9.30;3.83;;;25.50;99.90;;;;;;5008643;28;20064;-66
2021/07/28 11:00:38;;;;;;;9.30;4.97;;;24.40;99.90;;;;;;5004320;28;20025;-66
2021/07/28 11:03:04;;;;;;;10.43;4.05;;;23.90;99.90;;;;;;5008440;28;20022;-65
2021/07/28 11:05:31;;;;;;;9.73;5.43;;;24.00;99.90;;;;;;5007924;28;20113;-66
2021/07/28 11:08:05;;;;;;;8.57;4.40;;;24.40;99.90;;;;;;5009225;28;20808;-66
2021/07/28 11:10:35;;;;;;;8.50;4.38;;;24.40;99.90;;;;;;5007481;28;20114;-66
2021/07/28 11:13:25;;;;;;;9.02;4.35;;;23.10;99.90;;;;;;5005893;28;20053;-67
2021/07/28 11:16:06;;;;;;;8.73;3.63;;;23.50;99.90;;;;;;4998437;28;20052;-66
2021/07/28 11:18:48;;;;;;;8.85;4.30;;;25.00;99.90;;;;;;5002241;28;20041;-67
2021/07/28 11:21:23;;;;;;;7.72;3.63;;;25.90;99.90;;;;;;5000704;28;20041;-67
2021/07/28 11:24:01;;;;;;;8.18;3.88;;;26.60;99.90;;;;;;5006263;28;20010;-66
2021/07/28 11:26:30;;;;;;;10.77;3.40;;;26.20;99.90;;;;;;5005213;28;20021;-66
2021/07/28 11:28:58;;;;;;;5.45;2.55;;;25.80;99.90;;;;;;5004687;28;20102;-66
2021/07/28 11:31:35;;;;;;;6.90;2.90;;;25.80;99.90;;;;;;5005046;28;20036;-66
2021/07/28 11:34:03;;;;;;;7.07;3.10;;;26.00;99.90;;;;;;5004714;28;20579;-66
2021/07/28 11:36:28;;;;;;;6.47;2.78;;;26.00;99.90;;;;;;5006254;28;20026;-66
2021/07/28 11:38:54;;;;;;;6.18;2.80;;;26.40;99.90;;;;;;5007362;28;20121;-67
2021/07/28 11:41:23;;;;;;;8.40;3.40;;;27.10;99.90;;;;;;5005739;28;20456;-66
2021/07/28 11:43:55;;;;;;;7.13;2.72;;;27.60;99.90;;;;;;5005030;28;20132;-66
2021/07/28 11:46:21;;;;;;;6.20;2.35;;;27.10;99.60;;;;;;5006854;28;20064;-67
2021/07/28 11:48:52;;;;;;;6.30;2.20;;;26.30;99.70;;;;;;4988911;28;20058;-66
2021/07/28 11:51:27;;;;;;;4.93;2.00;;;26.40;99.40;;;;;;5004638;28;20102;-66
2021/07/28 11:54:05;;;;;;;6.88;2.03;;;25.90;99.80;;;;;;5004206;28;20105;-67
2021/07/28 11:56:31;;;;;;;4.68;1.73;;;25.70;98.70;;;;;;5007190;28;20041;-66
2021/07/28 11:58:56;;;;;;;4.40;1.67;;;25.70;99.10;;;;;;5005784;28;20042;-66
2021/07/28 12:01:27;;;;;;;8.73;2.45;;;24.80;99.20;;;;;;5005698;28;20029;-66
2021/07/28 12:04:04;;;;;;;6.38;2.70;;;24.80;99.90;;;;;;5002307;28;20037;-66
2021/07/28 12:06:37;;;;;;;6.43;2.45;;;24.00;99.90;;;;;;5005830;28;20037;-67
2021/07/28 12:09:28;;;;;;;7.35;2.80;;;24.50;99.90;;;;;;5007323;28;20488;-66
2021/07/28 12:12:12;;;;;;;7.88;2.47;;;25.10;99.90;;;;;;5003809;28;20045;-67
2021/07/28 12:14:45;;;;;;;5.65;1.98;;;26.10;97.40;;;;;;5005486;28;20112;-66
2021/07/28 12:17:17;;;;;;;6.97;1.98;;;27.90;96.20;;;;;;5008128;28;20042;-66
2021/07/28 12:20:05;;;;;;;6.40;2.10;;;27.40;96.00;;;;;;5006442;28;20029;-66
2021/07/28 12:22:36;;;;;;;5.70;2.10;;;26.30;96.00;;;;;;5007509;28;20504;-67
2021/07/28 12:25:20;;;;;;;5.32;2.00;;;26.20;96.90;;;;;;5006242;28;20026;-66
2021/07/28 12:27:52;;;;;;;6.32;2.20;;;26.60;95.80;;;;;;5007501;28;20034;-66
2021/07/28 12:30:20;;;;;;;6.10;2.08;;;25.70;95.30;;;;;;5005793;28;20036;-67
2021/07/28 12:32:59;;;;;;;6.85;2.17;;;25.10;97.30;;;;;;4989989;28;20045;-67
2021/07/28 12:35:40;;;;;;;8.70;2.60;;;25.20;97.90;;;;;;5006070;28;20034;-67
2021/07/28 12:38:16;;;;;;;6.50;1.92;;;26.10;97.60;;;;;;4993830;28;20044;-67
2021/07/28 12:40:55;;;;;;;6.95;2.30;;;26.80;95.20;;;;;;5006542;28;20026;-67
2021/07/28 12:43:22;;;;;;;8.45;2.42;;;26.30;97.00;;;;;;5006873;28;20034;-67
2021/07/28 12:45:55;;;;;;;6.47;2.00;;;27.10;96.20;;;;;;5009782;28;20458;-67
2021/07/28 12:48:21;;;;;;;7.18;2.30;;;26.90;94.90;;;;;;5009783;28;20033;-67
2021/07/28 12:50:47;;;;;;;5.75;2.17;;;25.40;97.40;;;;;;5009935;28;20032;-67
2021/07/28 12:53:14;;;;;;;5.05;1.80;;;25.50;96.60;;;;;;5010489;28;20028;-66